Date,TemperatureHighF,TemperatureAvgF,TemperatureLowF,DewpointHighF,DewpointAvgF,DewpointLowF,HumidityHigh,HumidityAvg,HumidityLow,PressureMaxIn,PressureMinIn,WindSpeedMaxMPH,WindSpeedAvgMPH,GustSpeedMaxMPH,PrecipitationSumIn
2013-1-1,40,38,34,33,28,16,77,68,41,30.01,29.87,18,4,28,0.14
2013-1-2,35,32,27,28,20,10,81,64,39,30.17,29.94,5,1,9,0.00
2013-1-3,36,29,24,23,18,12,87,64,43,30.20,30.12,14,3,22,0.00
2013-1-4,38,30,25,20,17,15,74,59,41,30.21,30.12,20,5,25,0.00
2013-1-5,43,35,27,22,17,15,67,50,34,30.36,30.16,16,2,22,0.00
2013-1-6,40,38,35,26,24,22,66,60,53,30.17,30.01,14,5,18,0.01
2013-1-7,38,34,30,27,24,22,81,69,58,30.42,30.13,8,2,16,0.00
2013-1-8,50,41,34,28,25,18,73,55,28,30.41,30.32,19,4,33,0.00
2013-1-9,54,48,42,44,37,21,80,68,35,30.38,30.25,17,8,23,0.00
2013-1-10,54,45,41,29,25,21,52,46,32,30.54,30.38,10,1,22,0.00
2013-1-11,57,43,38,51,35,25,97,74,50,30.42,30.06,19,4,33,0.01
2013-1-12,67,60,51,54,52,48,88,75,60,30.11,30.02,22,5,24,0.00
2013-1-13,63,60,57,55,54,52,91,82,68,30.02,29.90,12,4,23,0.00
2013-1-14,60,50,35,55,45,34,95,82,72,30.23,29.91,15,4,22,0.22
2013-1-15,36,33,32,35,32,31,97,97,95,30.29,30.10,5,1,9,0.84
2013-1-16,50,39,31,45,37,30,98,91,78,30.11,29.84,20,5,25,0.19
2013-1-17,44,38,32,39,28,18,91,71,42,30.08,29.96,12,2,20,0.00
2013-1-18,39,31,26,25,16,8,75,56,27,30.45,30.08,19,4,24,0.00
2013-1-19,48,38,30,25,20,15,63,50,35,30.39,30.00,17,6,27,0.00
2013-1-20,49,42,34,28,17,-6,59,39,15,30.03,29.85,21,8,31,0.00
2013-1-21,42,33,23,15,9,3,52,37,26,30.03,29.78,22,5,35,0.00
2013-1-22,22,14,9,7,-5,-11,56,43,31,30.27,29.89,12,6,28,0.00
2013-1-23,23,15,7,15,0,-5,83,53,29,30.33,30.09,12,2,17,0.00
2013-1-24,20,16,12,18,8,0,92,72,48,30.54,30.04,14,2,21,0.00
2013-1-25,22,15,11,20,9,2,91,77,54,30.53,30.05,13,3,18,0.00
2013-1-26,32,26,21,22,19,15,91,76,62,30.42,30.05,6,1,13,0.03
2013-1-27,34,26,20,22,18,15,83,72,57,30.56,30.42,7,1,21,0.07
2013-1-28,50,39,29,44,34,22,94,82,72,30.43,30.10,22,12,30,0.07
2013-1-29,68,57,49,53,49,44,91,76,55,30.11,29.91,17,6,22,0.00
2013-1-30,63,58,52,58,54,50,97,87,75,29.91,29.21,22,5,27,2.16
2013-1-31,52,33,25,48,21,12,92,64,50,29.85,29.18,21,9,39,0.10
2013-2-1,27,18,12,23,7,-1,92,63,43,30.36,29.76,18,5,32,0.00
2013-2-2,26,19,11,23,11,1,92,73,46,30.36,30.02,15,4,22,0.00
2013-2-3,31,27,23,25,20,10,91,74,57,30.01,29.80,15,5,26,0.02
2013-2-4,33,26,19,29,15,8,85,64,57,30.07,29.90,17,4,23,0.01
2013-2-5,44,39,34,32,30,25,85,68,62,29.90,29.82,17,5,23,0.00
2013-2-6,44,37,31,32,26,23,78,63,45,30.29,29.89,12,2,16,0.00
2013-2-7,34,30,27,29,24,23,90,79,69,30.36,30.14,4,1,8,0.00
2013-2-8,42,33,29,37,28,21,96,85,64,30.13,29.78,19,3,33,0.12
2013-2-9,38,30,23,21,12,5,73,50,28,30.37,30.00,18,4,27,0.00
2013-2-10,40,34,29,25,14,6,63,44,35,30.41,30.18,13,2,21,0.00
2013-2-11,57,47,35,48,36,18,94,70,28,30.18,29.75,16,6,33,0.01
2013-2-12,56,45,35,23,16,10,57,35,17,29.93,29.80,27,5,39,0.00
2013-2-13,43,37,31,31,22,12,95,61,29,29.90,29.59,6,1,12,0.00
2013-2-14,44,36,28,29,24,20,87,63,46,30.00,29.77,11,3,22,0.07
2013-2-15,49,40,32,36,29,23,95,66,48,30.02,29.87,14,4,21,0.07
2013-2-16,33,28,21,28,21,12,87,74,62,29.95,29.83,9,2,15,0.04
2013-2-17,21,17,14,15,4,-100,82,61,46,30.23,29.86,18,-15,29,0.00
2013-2-18,42,29,16,20,10,2,73,48,30,30.38,30.16,7,3,15,0.02
2013-2-19,43,37,32,37,25,13,94,65,43,30.13,29.71,18,6,31,0.03
2013-2-20,33,27,20,15,11,8,76,52,37,30.14,29.84,18,5,26,0.00
2013-2-21,37,25,16,14,12,8,75,58,40,30.31,30.12,11,2,15,0.00
2013-2-22,31,27,23,25,20,13,90,77,57,30.36,30.14,6,1,8,0.04
2013-2-23,49,38,29,38,33,25,95,83,65,30.14,29.80,6,1,14,0.02
2013-2-24,45,38,26,37,26,16,91,63,34,30.09,29.78,17,4,21,0.00
2013-2-25,39,30,24,19,16,13,73,59,43,30.20,30.09,9,2,13,0.00
2013-2-26,39,33,29,38,27,17,96,80,58,30.19,29.62,17,2,20,0.60
2013-2-27,44,38,34,35,32,28,97,78,57,29.70,29.57,12,4,24,0.01
2013-2-28,38,34,31,31,23,20,79,66,55,29.75,29.61,14,5,22,0.00
2013-3-1,33,30,27,25,23,19,82,73,66,29.90,29.75,13,3,13,0.00
2013-3-2,29,26,24,21,18,15,87,72,61,29.89,29.82,10,3,15,0.01
2013-3-3,32,26,21,17,14,10,77,62,48,29.96,29.83,11,4,22,0.00
2013-3-4,41,28,18,12,8,6,68,47,25,30.06,29.95,11,2,18,0.00
2013-3-5,44,36,29,28,18,7,95,50,32,30.07,29.69,7,1,11,0.00
2013-3-6,32,30,27,31,28,26,97,95,87,30.05,29.60,18,6,32,0.00
2013-3-7,36,33,31,29,25,22,89,74,60,30.20,30.04,11,4,19,0.22
2013-3-8,37,32,28,26,23,20,82,69,60,30.34,30.16,16,5,31,0.02
2013-3-9,52,39,29,25,21,12,76,52,28,30.37,30.27,7,1,8,0.00
2013-3-10,57,45,41,27,13,-100,40,32,30,30.30,30.15,5,-64,17,0.00
2013-3-11,52,49,46,47,30,9,85,52,20,30.16,29.82,11,3,18,0.00
2013-3-12,53,47,34,50,41,26,97,81,51,29.95,29.68,14,3,18,0.82
2013-3-13,40,34,26,25,19,12,74,57,34,30.08,29.89,23,6,32,0.00
2013-3-14,39,30,23,16,12,10,68,49,31,30.15,30.06,14,6,26,0.00
2013-3-15,53,41,29,31,21,11,52,44,38,30.12,29.81,14,6,22,0.00
2013-3-16,58,50,43,49,40,29,87,70,47,29.82,29.58,19,6,35,0.22
2013-3-17,44,33,29,39,32,28,96,95,83,30.22,29.83,4,1,9,0.11
2013-3-18,33,28,26,32,28,25,96,96,94,30.25,29.88,6,1,14,0.00
2013-3-19,50,41,31,41,22,-1,96,55,17,29.92,29.74,36,10,38,0.68
2013-3-20,44,36,30,23,8,2,67,31,21,29.98,29.74,25,7,29,0.00
2013-3-21,33,24,21,25,11,5,90,59,42,29.94,29.74,16,4,22,0.00
2013-3-22,42,29,20,15,10,6,62,48,31,30.02,29.91,12,4,19,0.00
2013-3-23,49,38,30,15,13,10,46,36,23,30.04,29.90,10,2,14,0.00
2013-3-24,38,31,27,26,20,14,95,66,39,29.96,29.60,4,1,7,0.00
2013-3-25,33,29,26,30,26,22,95,89,69,29.72,29.51,10,2,17,0.12
2013-3-26,38,34,31,28,24,22,87,70,54,30.04,29.73,11,4,20,0.28
2013-3-27,37,33,28,27,22,20,89,66,51,30.16,30.04,12,5,22,0.05
2013-3-28,38,35,32,24,22,21,71,61,54,30.25,30.13,14,5,23,0.00
2013-3-29,47,41,35,28,23,19,64,50,33,30.27,30.15,10,2,19,0.00
2013-3-30,54,46,39,27,24,22,56,44,32,30.21,30.07,11,3,13,0.00
2013-3-31,51,46,42,47,38,24,93,74,43,30.06,29.72,10,3,21,0.03
2013-4-1,52,45,36,42,32,16,77,61,45,29.94,29.75,20,7,27,0.00
2013-4-2,42,36,30,16,9,2,51,35,20,30.17,29.95,15,5,27,0.00
2013-4-3,45,36,30,14,9,4,47,34,19,30.35,30.16,13,4,18,0.00
2013-4-4,40,33,27,30,15,8,94,51,34,30.36,30.04,7,1,10,0.18
2013-4-5,57,44,32,38,29,23,97,62,28,30.03,29.87,12,3,19,0.21
2013-4-6,54,42,33,25,15,4,51,34,20,30.25,30.04,8,2,16,0.00
2013-4-7,65,54,40,41,36,20,69,51,38,30.20,29.99,10,3,22,0.00
2013-4-8,73,64,55,47,42,39,61,47,30,30.05,29.90,13,5,18,0.00
2013-4-9,78,70,62,51,49,46,59,48,36,30.05,29.91,15,5,22,0.00
2013-4-10,83,74,67,55,50,46,52,43,32,29.94,29.75,19,6,27,0.00
2013-4-11,79,71,66,56,52,43,64,52,28,29.80,29.64,10,4,19,0.00
2013-4-12,71,63,53,60,50,34,96,67,32,29.70,29.50,21,5,25,0.95
2013-4-13,65,54,44,34,29,19,60,41,22,29.93,29.71,16,5,23,0.00
2013-4-14,67,57,48,39,31,20,51,38,26,30.06,29.93,11,4,18,0.00
2013-4-15,57,52,48,50,46,39,95,81,51,30.21,30.04,7,2,12,0.25
2013-4-16,69,59,51,57,54,49,97,84,64,30.25,30.10,11,3,19,0.00
2013-4-17,75,67,61,58,56,53,83,70,47,30.17,30.05,22,3,22,0.01
2013-4-18,69,62,57,60,56,53,95,80,60,30.10,29.90,9,2,13,0.00
2013-4-19,67,62,49,62,56,36,94,81,60,29.89,29.55,16,5,25,0.31
2013-4-20,53,45,37,35,24,19,66,44,28,30.31,29.74,15,5,27,0.00
2013-4-21,50,41,33,27,24,21,65,51,38,30.53,30.31,11,3,17,0.00
2013-4-22,52,42,34,33,26,18,73,53,29,30.53,30.33,9,2,16,0.00
2013-4-23,61,49,40,43,38,33,82,69,49,30.35,30.07,7,1,10,0.00
2013-4-24,72,60,48,55,48,41,84,67,43,30.08,29.77,15,4,23,0.04
2013-4-25,59,49,39,40,26,14,72,46,19,30.30,29.97,11,3,24,0.00
2013-4-26,61,52,43,34,30,22,58,43,31,30.41,30.29,9,2,13,0.00
2013-4-27,65,56,49,40,36,32,59,47,35,30.36,30.21,9,2,14,0.00
2013-4-28,54,50,47,47,44,40,94,81,60,30.22,30.08,8,2,12,0.13
2013-4-29,60,52,47,54,49,45,96,89,76,30.09,29.96,7,1,9,0.01
2013-4-30,58,53,49,52,50,48,97,90,79,30.23,30.02,10,2,14,0.00
2013-5-1,66,56,48,50,41,27,96,64,24,30.35,30.23,11,2,14,0.01
2013-5-2,65,55,47,44,39,34,80,56,41,30.35,30.25,9,1,16,0.00
2013-5-3,60,52,44,45,43,38,89,72,51,30.31,30.21,11,1,15,0.00
2013-5-4,58,48,38,45,40,33,90,73,56,30.26,30.13,11,1,17,0.00
2013-5-5,58,49,41,43,36,28,79,62,46,30.18,30.07,9,2,17,0.00
2013-5-6,54,50,46,53,49,43,98,94,80,30.11,29.95,9,4,16,0.48
2013-5-7,56,53,49,55,52,48,98,97,93,29.95,29.86,14,2,16,1.52
2013-5-8,56,51,48,53,49,47,98,94,85,29.97,29.89,6,1,10,0.11
2013-5-9,72,60,50,54,49,42,95,69,35,30.00,29.91,16,3,18,0.02
2013-5-10,77,67,57,59,52,46,95,60,39,30.01,29.80,7,3,18,0.53
2013-5-11,72,64,59,57,55,48,89,74,53,29.82,29.68,12,4,19,0.03
2013-5-12,60,52,45,50,32,23,73,49,30,30.01,29.71,14,4,21,0.00
2013-5-13,51,44,39,29,25,18,66,47,29,30.16,30.00,9,2,19,0.00
2013-5-14,63,50,38,40,32,26,67,52,34,30.19,29.99,13,2,16,0.00
2013-5-15,87,69,56,61,47,39,69,48,22,29.98,29.70,20,7,30,0.00
2013-5-16,76,71,64,59,52,46,77,53,39,29.90,29.75,18,4,22,0.04
2013-5-17,75,66,60,60,55,51,93,70,45,30.06,29.88,7,1,13,0.23
2013-5-18,64,60,58,61,58,57,97,93,87,30.13,30.04,3,0,7,0.03
2013-5-19,61,58,56,59,57,56,98,97,92,30.13,30.08,2,0,5,0.00
2013-5-20,76,65,61,65,62,59,98,90,67,30.04,29.94,8,2,11,0.04
2013-5-21,83,75,64,68,64,58,90,71,48,29.94,29.82,10,1,15,0.00
2013-5-22,76,67,62,65,61,58,91,83,67,29.86,29.77,10,4,36,0.59
2013-5-23,75,66,59,65,60,55,93,81,62,29.82,29.69,12,3,17,0.26
2013-5-24,61,52,40,57,42,30,91,69,50,30.15,29.72,14,5,30,0.01
2013-5-25,59,47,35,34,30,23,76,54,26,30.23,30.14,15,3,20,0.00
2013-5-26,67,56,46,34,29,23,59,39,19,30.22,30.12,8,2,14,0.00
2013-5-27,61,57,51,50,40,29,67,53,38,30.25,30.14,4,0,7,0.00
2013-5-28,78,69,61,63,57,51,74,66,54,30.16,30.01,11,3,22,0.00
2013-5-29,82,74,65,62,60,57,79,63,44,30.09,30.02,18,4,20,0.00
2013-5-30,84,75,67,64,61,57,76,62,42,30.14,30.06,8,2,17,0.00
2013-5-31,82,73,65,63,60,56,78,64,43,30.09,29.98,15,3,18,0.00
2013-6-1,82,74,67,65,62,59,76,65,51,29.99,29.87,14,4,22,0.00
2013-6-2,75,70,66,67,62,59,88,75,61,29.88,29.78,12,3,19,0.00
2013-6-3,74,67,62,63,60,55,94,79,58,29.92,29.78,8,2,19,0.00
2013-6-4,70,61,55,54,46,34,83,59,37,30.10,29.92,10,1,15,0.00
2013-6-5,72,65,58,60,51,43,75,61,48,30.11,29.98,8,1,11,0.00
2013-6-6,64,59,55,61,56,51,98,91,74,29.99,29.80,7,1,14,1.37
2013-6-7,64,62,60,63,62,60,99,98,95,29.79,29.60,8,1,14,0.19
2013-6-8,77,66,58,62,58,53,95,77,47,30.05,29.74,6,1,10,0.05
2013-6-9,75,67,61,67,63,59,94,85,72,30.12,30.01,4,1,10,0.11
2013-6-10,75,66,64,69,64,62,99,95,79,30.05,29.76,12,2,19,1.54
2013-6-11,74,68,62,62,59,57,93,74,58,29.86,29.77,14,5,24,0.00
2013-6-12,83,75,66,67,62,58,78,65,52,29.85,29.75,15,4,21,0.00
2013-6-13,79,70,61,67,62,53,86,78,61,29.76,29.46,21,5,35,0.06
2013-6-14,71,63,58,54,52,50,76,67,52,29.99,29.62,10,3,24,0.00
2013-6-15,77,67,58,57,53,49,76,62,46,30.06,29.96,6,1,8,0.00
2013-6-16,75,69,63,66,59,50,88,70,57,30.00,29.88,14,4,19,0.09
2013-6-17,77,70,64,67,63,59,92,80,66,29.93,29.84,13,3,18,0.13
2013-6-18,68,65,61,66,62,58,95,89,77,29.88,29.76,10,2,20,0.29
2013-6-19,69,64,61,62,60,58,94,87,74,30.10,29.85,10,2,12,0.00
2013-6-20,72,66,61,63,61,60,96,86,72,30.20,30.10,5,1,10,0.00
2013-6-21,76,68,59,64,58,52,85,73,58,30.22,30.16,11,1,12,0.00
2013-6-22,81,70,60,66,60,53,91,73,51,30.19,30.08,9,1,14,0.00
2013-6-23,82,71,64,67,64,59,94,79,48,30.13,30.04,7,1,13,0.51
2013-6-24,81,74,66,70,66,61,90,77,58,30.09,29.99,7,1,14,0.24
2013-6-25,84,76,68,71,66,62,84,73,60,30.01,29.87,15,2,18,0.00
2013-6-26,80,73,66,71,68,63,94,83,69,29.87,29.78,11,2,16,0.17
2013-6-27,79,72,68,69,66,64,96,82,69,29.79,29.59,13,4,18,0.33
2013-6-28,83,74,67,68,62,53,90,69,41,29.62,29.43,11,4,20,0.00
2013-6-29,79,71,65,65,59,53,85,65,53,29.65,29.48,9,3,16,0.01
2013-6-30,79,72,66,70,66,62,87,81,71,29.78,29.64,7,1,11,0.02
2013-7-1,76,70,66,68,66,63,96,86,71,29.90,29.77,8,1,11,0.02
2013-7-2,74,69,66,69,66,64,95,90,80,30.09,29.90,8,2,12,0.23
2013-7-3,76,70,67,71,67,65,96,91,83,30.17,30.08,7,2,13,0.08
2013-7-4,78,73,69,72,68,66,94,87,76,30.20,30.11,6,2,16,0.25
2013-7-5,80,74,68,70,68,66,94,82,68,30.17,30.08,9,2,15,0.00
2013-7-6,82,75,70,71,68,65,91,79,64,30.14,30.02,9,3,16,0.00
2013-7-7,81,72,66,71,67,64,94,84,70,30.07,29.95,12,4,26,0.16
2013-7-8,76,71,66,68,64,62,92,80,64,30.09,30.02,8,3,15,0.00
2013-7-9,78,74,68,70,66,63,85,77,64,30.07,29.97,6,2,14,0.00
2013-7-10,81,74,69,71,68,65,95,81,68,29.98,29.84,13,4,18,0.00
2013-7-11,76,71,64,68,66,63,96,86,71,29.88,29.81,15,2,19,0.78
2013-7-12,65,62,60,63,61,60,97,95,88,30.03,29.86,8,2,16,1.66
2013-7-13,75,68,62,69,65,61,97,90,77,30.20,30.03,7,1,9,0.17
2013-7-14,81,72,65,70,67,64,98,84,66,30.29,30.20,5,1,9,0.08
2013-7-15,85,76,70,73,68,66,93,77,59,30.27,30.17,8,1,13,0.00
2013-7-16,84,78,73,74,70,66,86,74,64,30.22,30.12,11,2,13,0.02
2013-7-17,82,78,73,73,70,68,87,78,69,30.18,30.07,8,1,9,0.00
2013-7-18,88,80,74,75,72,69,86,77,59,30.10,29.97,9,1,15,0.00
2013-7-19,86,78,70,74,70,64,89,76,60,29.98,29.85,13,3,20,0.06
2013-7-20,84,76,71,73,68,63,90,77,61,29.87,29.79,13,5,19,0.00
2013-7-21,82,72,67,72,67,64,96,83,65,29.90,29.84,5,1,12,0.37
2013-7-22,80,72,67,72,68,63,96,86,74,29.90,29.71,12,2,23,0.20
2013-7-23,80,74,68,67,65,62,97,75,55,29.72,29.62,9,3,14,0.00
2013-7-24,75,71,65,67,62,54,85,74,66,29.86,29.64,11,2,15,0.00
2013-7-25,71,63,56,60,55,51,90,76,64,30.02,29.85,7,1,11,0.00
2013-7-26,76,67,59,63,57,51,88,71,54,30.06,29.97,6,1,11,0.00
2013-7-27,68,67,64,67,64,61,95,89,84,30.00,29.86,12,1,14,0.05
2013-7-28,77,71,65,64,62,58,92,75,57,29.95,29.83,9,2,15,0.00
2013-7-29,73,66,60,59,53,49,77,64,48,30.14,29.95,9,1,12,0.00
2013-7-30,75,67,60,61,55,49,77,65,50,30.18,30.09,5,1,8,0.00
2013-7-31,74,66,62,65,61,58,96,83,71,30.10,29.95,6,1,13,0.30
2013-8-1,76,67,62,69,64,60,98,89,69,29.95,29.80,8,1,11,0.24
2013-8-2,78,72,64,63,59,56,83,66,51,29.94,29.84,11,2,14,0.00
2013-8-3,74,69,64,65,59,56,86,72,62,29.94,29.87,7,1,13,0.00
2013-8-4,73,67,62,59,55,50,87,68,50,30.01,29.90,6,1,21,0.00
2013-8-5,73,65,58,60,55,51,83,71,53,30.07,29.96,4,1,9,0.00
2013-8-6,75,67,61,66,62,58,96,86,70,29.99,29.93,8,1,9,0.06
2013-8-7,76,70,65,69,66,64,97,89,77,30.00,29.94,6,1,13,0.01
2013-8-8,77,72,69,70,68,65,92,87,79,29.97,29.91,7,1,13,0.02
2013-8-9,83,76,70,71,68,65,95,79,60,29.92,29.84,15,4,22,0.00
2013-8-10,76,72,68,70,67,65,95,85,70,30.03,29.91,6,1,13,0.34
2013-8-11,78,71,65,71,67,63,96,88,73,30.05,29.95,7,1,9,0.05
2013-8-12,80,73,68,70,67,64,95,81,64,29.98,29.87,3,0,9,0.00
2013-8-13,78,71,66,68,64,60,94,78,59,29.86,29.72,11,2,22,0.12
2013-8-14,67,60,54,61,49,44,86,67,52,30.10,29.78,11,2,19,0.00
2013-8-15,69,60,52,56,50,47,85,71,53,30.15,30.06,6,1,8,0.00
2013-8-16,70,62,55,56,53,50,88,72,56,30.16,30.09,5,1,8,0.00
2013-8-17,70,63,56,58,55,51,92,76,58,30.21,30.15,8,1,13,0.01
2013-8-18,61,59,57,60,58,56,98,97,91,30.20,30.13,3,0,6,0.95
2013-8-19,74,66,60,67,63,59,98,92,78,30.16,30.02,10,2,14,0.04
2013-8-20,80,70,64,69,66,63,98,87,60,30.14,30.05,4,0,9,0.00
2013-8-21,80,70,64,70,66,61,97,87,72,30.14,30.04,8,2,19,0.42
2013-8-22,77,71,65,69,63,60,90,77,65,30.06,29.93,12,2,19,0.24
2013-8-23,72,65,59,66,62,55,97,90,75,30.09,29.91,11,1,18,1.11
2013-8-24,72,64,57,63,56,52,91,77,56,30.29,30.09,4,0,10,0.00
2013-8-25,74,66,59,61,57,51,91,75,49,30.35,30.23,6,1,12,0.00
2013-8-26,78,70,61,62,58,56,83,68,48,30.26,30.01,11,2,22,0.00
2013-8-27,81,74,70,68,64,57,79,69,59,30.01,29.88,7,2,12,0.00
2013-8-28,75,71,66,70,67,64,97,88,69,29.91,29.76,14,4,19,0.56
2013-8-29,76,71,66,69,67,63,96,88,75,29.98,29.79,7,2,13,0.02
2013-8-30,79,71,66,68,66,64,94,83,67,29.98,29.84,12,2,15,0.00
2013-8-31,82,72,68,70,67,63,92,83,68,29.86,29.77,14,3,21,0.03
2013-9-1,81,72,65,71,66,63,93,84,62,29.81,29.73,9,1,16,0.03
2013-9-2,82,74,68,70,67,63,96,79,63,29.78,29.70,7,1,14,0.00
2013-9-3,78,71,65,64,60,54,82,68,50,29.92,29.70,13,1,20,0.00
2013-9-4,76,66,57,59,56,52,89,71,47,30.05,29.93,5,1,7,0.00
2013-9-5,79,68,60,61,52,42,70,57,41,30.08,29.97,6,1,10,0.00
2013-9-6,71,61,54,54,51,44,81,69,51,30.18,30.09,4,1,11,0.00
2013-9-7,76,65,57,60,54,50,81,68,45,30.11,29.91,11,2,16,0.00
2013-9-8,81,72,65,65,59,49,81,65,52,29.97,29.84,11,1,14,0.00
2013-9-9,74,67,62,65,61,55,90,81,71,30.12,29.97,6,1,12,0.00
2013-9-10,86,74,67,71,67,63,92,79,58,30.15,30.06,17,3,22,0.00
2013-9-11,85,77,71,71,69,66,88,78,62,30.10,29.96,9,1,16,0.00
2013-9-12,83,74,68,70,65,59,87,73,57,29.96,29.71,8,2,25,0.00
2013-9-13,68,63,53,59,52,46,91,70,48,29.91,29.67,9,3,28,0.01
2013-9-14,60,52,46,48,43,41,84,74,57,30.14,29.90,7,1,17,0.00
2013-9-15,70,60,49,56,50,44,82,72,57,30.20,30.06,12,2,16,0.00
2013-9-16,64,60,55,57,54,50,91,83,75,30.20,30.02,12,3,19,0.01
2013-9-17,62,54,49,51,48,42,93,80,56,30.36,30.20,7,1,9,0.00
2013-9-18,65,54,45,52,46,40,86,75,62,30.30,30.15,6,1,13,0.00
2013-9-19,69,61,55,60,55,49,92,81,70,30.17,30.03,8,1,13,0.00
2013-9-20,73,65,59,64,61,56,94,87,70,30.04,29.89,4,1,11,0.00
2013-9-21,64,61,57,62,60,56,98,94,89,29.89,29.63,8,1,23,0.57
2013-9-22,65,58,52,56,51,43,97,78,58,29.92,29.71,6,1,19,0.01
2013-9-23,60,52,46,49,44,42,88,76,61,30.08,29.92,9,1,17,0.00
2013-9-24,69,56,48,55,48,43,86,75,60,30.08,29.93,5,1,11,0.00
2013-9-25,68,60,54,55,46,-100,83,66,47,29.95,29.84,4,-29,12,0.00
2013-9-26,69,60,54,52,49,44,89,68,41,30.04,29.87,5,1,11,0.00
2013-9-27,66,58,53,54,51,47,90,77,60,30.18,30.04,9,1,12,0.00
2013-9-28,59,55,51,53,51,48,97,86,72,30.26,30.18,5,1,9,0.00
2013-9-29,66,57,52,51,47,45,83,71,54,30.18,30.03,5,1,10,0.00
2013-9-30,71,60,52,56,51,46,84,72,51,30.04,29.95,7,1,11,0.00
2013-10-1,74,66,61,58,54,52,79,67,48,30.05,29.96,6,1,14,0.00
2013-10-2,79,68,60,61,56,53,80,67,49,30.07,29.98,3,0,9,0.00
2013-10-3,77,68,64,62,59,55,79,71,58,30.07,30.00,6,0,7,0.00
2013-10-4,78,71,65,63,60,58,78,70,56,30.05,29.99,5,2,10,0.00
2013-10-5,82,72,66,64,61,59,83,69,51,30.05,29.96,3,1,8,0.00
2013-10-6,79,72,66,64,61,57,86,69,51,29.97,29.82,9,2,15,0.00
2013-10-7,68,61,51,64,55,41,97,83,64,30.02,29.69,14,3,20,1.41
2013-10-8,59,52,47,44,42,38,79,67,48,30.25,30.02,9,2,13,0.00
2013-10-9,53,50,46,47,44,41,95,80,71,30.29,30.21,7,2,14,0.15
2013-10-10,52,48,46,51,48,44,98,97,95,30.20,30.01,10,3,17,0.38
2013-10-11,54,52,50,54,51,49,99,98,95,30.01,29.95,11,3,17,0.03
2013-10-12,58,56,54,58,56,54,99,98,98,30.13,29.98,8,2,12,0.02
2013-10-13,56,54,54,56,54,53,99,99,98,30.27,30.12,4,1,7,0.16
2013-10-14,58,54,53,56,54,52,99,98,95,30.29,30.20,3,0,4,0.19
2013-10-15,63,55,49,56,52,47,98,91,73,30.21,30.07,3,0,5,0.01
2013-10-16,64,59,53,57,54,46,93,84,71,30.06,29.88,12,2,16,0.00
2013-10-17,66,61,55,60,57,47,95,86,75,29.88,29.70,9,3,19,0.02
2013-10-18,61,52,47,46,40,36,75,64,43,29.98,29.80,8,2,21,0.02
2013-10-19,58,53,49,53,45,39,88,75,65,29.96,29.75,15,2,17,0.00
2013-10-20,57,47,40,36,32,29,67,56,42,30.09,29.86,21,2,21,0.00
2013-10-21,62,53,47,45,38,33,75,59,45,30.10,29.92,10,2,14,0.00
2013-10-22,60,54,48,46,42,36,81,67,51,29.91,29.77,14,4,22,0.00
2013-10-23,48,43,38,39,34,30,78,69,59,29.91,29.64,12,2,23,0.00
2013-10-24,42,38,35,30,25,22,73,61,46,30.15,29.91,12,4,21,0.00
2013-10-25,45,37,32,26,23,22,70,60,42,30.34,30.14,8,2,16,0.00
2013-10-26,49,40,30,29,25,22,76,56,37,30.32,29.97,12,3,25,0.00
2013-10-27,58,48,43,35,32,29,65,55,39,30.10,29.97,14,3,21,0.00
2013-10-28,60,51,45,41,37,31,70,59,47,30.24,30.09,6,1,8,0.00
2013-10-29,61,51,45,44,42,39,83,71,53,30.33,30.23,4,0,9,0.00
2013-10-30,64,55,50,55,50,42,92,83,72,30.28,30.10,9,2,20,0.05
2013-10-31,66,62,58,56,55,53,88,76,67,30.13,29.68,11,3,19,0.00
2013-11-1,69,63,57,59,51,41,90,68,43,29.66,29.52,13,4,25,0.01
2013-11-2,59,53,44,43,38,30,71,56,39,29.86,29.61,14,4,22,0.01
2013-11-3,50,44,39,35,28,20,76,54,36,30.40,29.87,19,3,22,0.00
2013-11-4,42,35,28,26,22,20,76,61,49,30.59,30.40,5,0,8,0.00
2013-11-5,48,41,31,44,31,20,95,69,52,30.61,30.44,5,1,8,0.00
2013-11-6,64,53,46,50,46,43,94,79,58,30.43,30.03,9,2,21,0.00
2013-11-7,56,49,36,51,41,20,93,74,52,30.05,29.86,19,6,22,0.07
2013-11-8,43,38,36,24,22,19,59,51,40,30.31,30.05,14,4,20,0.00
2013-11-9,51,42,35,26,24,22,62,50,34,30.31,30.06,15,4,26,0.00
2013-11-10,56,47,36,34,26,20,63,45,25,30.23,29.96,18,6,30,0.00
2013-11-11,56,45,34,25,22,18,66,44,23,30.27,30.00,11,3,22,0.00
2013-11-12,51,34,25,33,19,12,73,56,32,30.39,29.95,17,5,28,0.00
2013-11-13,36,29,23,17,12,3,73,52,28,30.50,30.39,11,3,18,0.00
2013-11-14,54,42,28,16,11,5,46,29,18,30.40,30.21,17,4,24,0.00
2013-11-15,58,50,43,41,17,10,88,30,15,30.25,30.13,16,4,27,0.13
2013-11-16,56,49,42,50,46,40,97,90,77,30.24,30.17,7,1,10,0.20
2013-11-17,57,54,51,56,52,49,96,91,86,30.17,29.70,11,3,19,0.04
2013-11-18,60,53,41,57,31,20,95,46,23,29.91,29.68,23,8,33,0.18
2013-11-19,41,36,30,25,23,21,70,60,48,30.35,29.90,13,4,22,0.00
2013-11-20,40,33,28,26,20,16,81,61,41,30.52,30.36,6,1,10,0.00
2013-11-21,46,39,32,43,35,27,90,85,80,30.53,30.37,11,1,17,0.00
2013-11-22,59,54,46,53,48,43,87,82,74,30.37,29.99,18,6,27,0.00
2013-11-23,53,38,24,46,25,11,88,62,25,30.16,29.99,23,6,38,0.00
2013-11-24,23,18,15,9,4,0,70,54,41,30.55,30.16,17,5,28,0.00
2013-11-25,33,23,14,13,8,3,82,54,32,30.55,30.35,15,3,22,0.00
2013-11-26,43,36,29,42,31,11,98,84,46,30.35,29.62,11,3,19,1.11
2013-11-27,39,30,20,39,26,10,98,85,64,30.07,29.56,28,6,33,1.17
2013-11-28,36,26,20,21,15,10,72,64,48,30.45,30.07,10,3,22,0.01
2013-11-29,38,30,25,23,19,16,82,64,51,30.68,30.43,8,2,14,0.01
2013-11-30,33,27,22,22,19,17,86,72,58,30.68,30.34,9,1,22,0.00
2013-12-1,46,39,30,32,24,19,67,55,44,30.34,29.99,16,5,25,0.00
2013-12-2,50,46,44,34,32,31,65,60,53,29.99,29.80,11,2,14,0.00
2013-12-3,52,46,40,40,36,33,80,68,62,29.96,29.82,11,2,14,0.00
2013-12-4,58,50,45,49,45,38,91,82,69,30.02,29.93,10,2,16,0.00
2013-12-5,65,56,52,58,50,-100,93,85,74,30.01,29.90,15,-7,22,0.00
2013-12-6,62,47,34,60,46,33,98,96,92,30.09,29.84,12,2,24,0.38
2013-12-7,34,31,25,33,28,21,97,87,77,30.51,30.06,10,3,18,0.44
2013-12-8,31,25,22,31,23,19,97,92,84,30.52,30.27,3,1,7,0.07
2013-12-9,47,39,30,44,36,29,97,90,67,30.29,30.00,18,7,29,0.89
2013-12-10,39,32,27,31,24,9,96,74,46,30.18,29.92,18,4,24,0.03
2013-12-11,34,27,22,18,14,9,74,60,48,30.37,30.19,15,5,19,0.02
2013-12-12,31,24,20,17,8,-2,71,51,29,30.38,30.25,17,5,23,0.03
2013-12-13,38,30,23,14,11,7,57,44,35,30.32,30.23,23,7,26,0.01
2013-12-14,37,32,30,31,26,12,97,85,36,30.28,29.73,5,1,10,0.05
2013-12-15,41,35,29,38,27,20,98,75,57,29.93,29.64,19,8,28,0.28
2013-12-16,36,32,29,28,25,23,84,73,63,30.12,29.91,21,3,23,0.00
2013-12-17,45,38,32,34,30,22,83,73,61,30.07,29.88,15,6,29,0.00
2013-12-18,37,31,26,21,18,16,79,61,43,30.21,29.95,18,6,22,0.00
2013-12-19,58,47,32,26,21,14,61,37,28,30.19,30.10,21,8,27,0.00
2013-12-20,58,52,46,38,26,21,53,37,28,30.09,29.96,17,4,24,0.00
2013-12-21,64,59,53,58,47,35,83,66,50,30.01,29.83,15,5,27,0.00
2013-12-22,65,59,56,60,56,53,96,88,82,29.97,29.78,19,5,26,0.04
2013-12-23,58,47,30,57,43,23,97,86,69,30.17,29.88,11,4,22,0.93
2013-12-24,31,25,16,23,16,3,84,67,49,30.45,30.15,17,4,24,0.00
2013-12-25,28,20,12,18,11,6,85,70,55,30.54,30.35,12,1,23,0.00
2013-12-26,40,32,24,22,14,10,62,49,36,30.36,30.23,21,8,25,0.00
2013-12-27,45,37,30,19,15,12,55,42,32,30.41,30.31,13,5,17,0.00
2013-12-28,50,43,36,22,19,17,47,39,30,30.34,30.10,15,7,19,0.00
2013-12-29,49,42,38,43,37,17,97,83,29,30.11,29.56,16,4,28,1.58
2013-12-30,42,36,28,36,28,22,83,73,66,30.12,29.80,15,4,23,0.00
2013-12-31,36,31,27,24,18,11,79,61,39,30.30,30.09,20,5,34,0.00
2014-1-1,47,35,28,25,20,16,75,55,42,30.37,30.08,13,4,24,0.00
2014-1-2,37,33,27,29,25,21,95,75,55,30.06,29.59,14,3,20,0.03